createdAt,value
2019-01-09T00:01:50.567Z,20.82
2019-01-09T00:04:21.082Z,20.80
2019-01-09T00:06:51.701Z,18.67
2019-01-09T00:09:22.163Z,17.85
2019-01-09T00:11:53.211Z,23.80
2019-01-09T00:14:24.335Z,21.55
2019-01-09T00:16:54.866Z,20.35
2019-01-09T00:19:25.529Z,20.85
2019-01-09T00:21:58.248Z,17.98
2019-01-09T00:24:28.745Z,22.42
2019-01-09T00:26:59.894Z,24.32
2019-01-09T00:29:30.649Z,22.10
2019-01-09T00:32:01.231Z,21.65
2019-01-09T00:34:31.957Z,21.68
2019-01-09T00:37:02.486Z,19.45
2019-01-09T00:39:32.951Z,24.63
2019-01-09T00:42:03.576Z,19.62
2019-01-09T00:44:34.427Z,21.35
2019-01-09T00:47:05.035Z,21.75
2019-01-09T00:49:35.665Z,17.12
2019-01-09T00:52:06.372Z,20.70
2019-01-09T00:54:37.000Z,24.27
2019-01-09T00:57:07.515Z,21.82
2019-01-09T00:59:38.172Z,20.27
2019-01-09T01:02:25.176Z,19.40
2019-01-09T01:05:46.097Z,20.62
2019-01-09T01:08:49.179Z,20.62
2019-01-09T01:11:52.985Z,17.67
2019-01-09T01:15:18.390Z,21.37
2019-01-09T01:18:36.670Z,16.87
2019-01-09T01:21:21.405Z,19.32
2019-01-09T01:24:14.672Z,17.85
2019-01-09T01:27:16.447Z,18.17
2019-01-09T01:30:33.972Z,20.08
2019-01-09T01:33:32.871Z,17.35
2019-01-09T01:36:58.906Z,18.80
2019-01-09T01:40:04.453Z,19.23
2019-01-09T01:43:21.476Z,20.35
2019-01-09T01:46:40.342Z,17.67
2019-01-09T01:50:01.043Z,18.57
2019-01-09T01:53:05.503Z,19.57
2019-01-09T01:56:06.103Z,15.45
2019-01-09T01:59:07.385Z,18.92
2019-01-09T02:02:27.242Z,21.10
2019-01-09T02:05:18.892Z,18.27
2019-01-09T02:08:33.790Z,20.62
2019-01-09T02:11:39.348Z,19.07
2019-01-09T02:14:42.784Z,18.52
2019-01-09T02:17:49.880Z,18.23
2019-01-09T02:21:03.725Z,16.48
2019-01-09T02:24:21.627Z,17.77
2019-01-09T02:27:32.976Z,28.98
2019-01-09T02:30:56.793Z,20.45
2019-01-09T02:33:27.795Z,22.70
2019-01-09T02:35:58.359Z,18.80
2019-01-09T02:38:28.873Z,18.12
2019-01-09T02:40:59.477Z,18.98
2019-01-09T02:43:30.044Z,21.95
2019-01-09T02:46:00.479Z,18.15
2019-01-09T02:48:32.148Z,17.50
2019-01-09T02:51:02.763Z,20.32
2019-01-09T02:53:33.308Z,17.77
2019-01-09T02:56:04.030Z,26.90
2019-01-09T02:58:36.673Z,18.02
2019-01-09T03:01:07.533Z,21.55
2019-01-09T03:03:38.067Z,21.27
2019-01-09T03:06:08.908Z,19.55
2019-01-09T03:08:39.503Z,19.07
2019-01-09T03:11:10.151Z,23.18
2019-01-09T03:13:40.904Z,18.10
2019-01-09T03:16:11.636Z,20.92
2019-01-09T03:18:42.076Z,16.82
2019-01-09T03:21:12.812Z,20.02
2019-01-09T03:23:43.286Z,18.65
2019-01-09T03:26:13.767Z,20.60
2019-01-09T03:28:44.607Z,22.20
2019-01-09T03:31:15.291Z,20.23
2019-01-09T03:33:45.859Z,18.55
2019-01-09T03:36:16.639Z,22.25
2019-01-09T03:38:47.436Z,19.95
2019-01-09T03:41:17.993Z,20.00
2019-01-09T03:43:48.723Z,22.60
2019-01-09T03:46:20.491Z,23.52
2019-01-09T03:48:51.179Z,16.15
2019-01-09T03:51:22.712Z,27.32
2019-01-09T03:53:53.476Z,25.72
2019-01-09T03:56:24.254Z,22.58
2019-01-09T03:58:54.780Z,26.37
2019-01-09T04:01:25.665Z,27.05
2019-01-09T04:03:56.124Z,25.77
2019-01-09T04:06:26.657Z,31.40
2019-01-09T04:08:57.171Z,31.80
2019-01-09T04:11:27.660Z,32.75
2019-01-09T04:13:58.142Z,33.60
2019-01-09T04:16:28.798Z,26.48
2019-01-09T04:18:59.722Z,32.67
2019-01-09T04:21:30.228Z,29.37
2019-01-09T04:24:00.892Z,30.68
2019-01-09T04:26:32.158Z,30.48
2019-01-09T04:29:02.807Z,25.95
2019-01-09T04:31:34.711Z,28.23
2019-01-09T04:34:05.252Z,25.50
2019-01-09T04:36:35.955Z,19.37
2019-01-09T04:39:07.667Z,22.58
2019-01-09T04:41:38.262Z,19.45
2019-01-09T04:44:08.844Z,21.77
2019-01-09T04:46:39.421Z,19.23
2019-01-09T04:49:10.048Z,25.23
2019-01-09T04:51:40.539Z,24.15
2019-01-09T04:54:11.078Z,20.97
2019-01-09T04:56:41.567Z,20.48
2019-01-09T04:59:12.941Z,20.27
2019-01-09T05:01:43.590Z,19.75
2019-01-09T05:04:13.972Z,18.82
2019-01-09T05:06:44.479Z,19.67
2019-01-09T05:09:15.091Z,17.87
2019-01-09T05:11:45.869Z,18.42
2019-01-09T05:14:16.451Z,17.62
2019-01-09T05:16:46.970Z,19.25
2019-01-09T05:19:17.324Z,18.12
2019-01-09T05:21:47.967Z,20.97
2019-01-09T05:24:18.446Z,20.82
2019-01-09T05:26:48.906Z,20.00
2019-01-09T05:29:21.541Z,16.77
2019-01-09T05:31:52.312Z,21.05
2019-01-09T05:34:22.976Z,19.42
2019-01-09T05:36:53.272Z,21.75
2019-01-09T05:39:23.876Z,20.43
2019-01-09T05:41:55.305Z,18.80
2019-01-09T05:44:25.855Z,20.30
2019-01-09T05:46:56.519Z,21.30
2019-01-09T05:49:27.177Z,21.65
2019-01-09T05:51:58.580Z,18.60
2019-01-09T05:54:30.175Z,22.85
2019-01-09T05:57:01.017Z,24.80
2019-01-09T05:59:31.635Z,21.15
2019-01-09T06:02:03.074Z,18.92
2019-01-09T06:04:33.847Z,19.15
2019-01-09T06:07:04.663Z,21.30
2019-01-09T06:09:35.411Z,18.00
2019-01-09T06:12:06.128Z,16.40
2019-01-09T06:14:36.721Z,23.75
2019-01-09T06:17:08.699Z,26.17
2019-01-09T06:19:39.305Z,17.52
2019-01-09T06:22:10.950Z,19.23
2019-01-09T06:24:41.673Z,19.67
2019-01-09T06:29:43.376Z,22.05
2019-01-09T06:32:14.120Z,16.80
2019-01-09T06:34:44.590Z,17.98
2019-01-09T06:37:15.041Z,18.27
2019-01-09T06:39:45.665Z,18.70
2019-01-09T06:42:16.419Z,18.70
2019-01-09T06:44:46.987Z,17.20
2019-01-09T06:47:17.490Z,19.35
2019-01-09T06:49:47.965Z,25.12
2019-01-09T06:52:18.594Z,18.35
2019-01-09T06:54:50.194Z,22.52
2019-01-09T06:57:21.118Z,20.48
2019-01-09T06:59:51.766Z,19.85
2019-01-09T07:02:23.549Z,19.90
2019-01-09T07:04:53.963Z,18.82
2019-01-09T07:07:24.464Z,24.67
2019-01-09T07:09:54.987Z,25.52
2019-01-09T07:12:25.632Z,23.10
2019-01-09T07:14:57.654Z,27.93
2019-01-09T07:17:28.273Z,24.60
2019-01-09T07:20:00.280Z,28.67
2019-01-09T07:22:31.015Z,34.40
2019-01-09T07:25:01.953Z,29.05
2019-01-09T07:27:32.572Z,36.45
2019-01-09T07:30:03.491Z,27.77
2019-01-09T07:32:33.972Z,34.75
2019-01-09T07:35:05.560Z,25.95
2019-01-09T07:37:44.654Z,37.58
2019-01-09T07:40:08.384Z,32.15
2019-01-09T07:42:38.965Z,24.72
2019-01-09T07:45:10.231Z,30.20
2019-01-09T07:47:40.890Z,29.57
2019-01-09T07:50:11.494Z,28.70
2019-01-09T07:52:42.274Z,24.60
2019-01-09T07:55:13.554Z,23.18
2019-01-09T07:57:44.052Z,28.65
2019-01-09T08:00:14.694Z,26.73
2019-01-09T08:02:45.458Z,32.73
2019-01-09T08:05:15.999Z,35.58
2019-01-09T08:07:53.803Z,27.17
2019-01-09T08:10:18.949Z,24.60
2019-01-09T08:12:49.421Z,21.75
2019-01-09T08:15:19.996Z,21.60
2019-01-09T08:17:50.573Z,17.07
2019-01-09T08:20:21.129Z,22.07
2019-01-09T08:22:51.823Z,19.90
2019-01-09T08:25:22.400Z,21.55
2019-01-09T08:27:53.005Z,35.90
2019-01-09T08:30:23.622Z,22.55
2019-01-09T08:32:54.159Z,26.97
2019-01-09T08:35:24.804Z,19.27
2019-01-09T08:38:02.642Z,25.50
2019-01-09T08:40:27.804Z,22.15
2019-01-09T08:42:58.695Z,25.32
2019-01-09T08:45:29.426Z,15.48
2019-01-09T08:48:00.115Z,18.12
2019-01-09T08:50:30.814Z,24.47
2019-01-09T08:53:01.247Z,23.18
2019-01-09T08:55:32.069Z,21.68
2019-01-09T08:58:02.705Z,20.65
2019-01-09T09:00:33.792Z,17.62
2019-01-09T09:03:04.450Z,16.70
2019-01-09T09:05:35.510Z,21.40
2019-01-09T09:08:11.988Z,21.95
2019-01-09T09:10:38.803Z,25.37
2019-01-09T09:13:10.594Z,26.80
2019-01-09T09:15:41.181Z,34.60
2019-01-09T09:18:11.805Z,37.25
2019-01-09T09:20:42.302Z,33.10
2019-01-09T09:23:13.185Z,32.80
2019-01-09T09:25:43.743Z,35.10
2019-01-09T09:28:14.475Z,28.45
2019-01-09T09:30:45.033Z,30.80
2019-01-09T09:33:15.569Z,28.70
2019-01-09T09:35:46.196Z,24.57
2019-01-09T09:38:20.692Z,19.73
2019-01-09T09:40:49.198Z,19.30
2019-01-09T09:43:19.803Z,19.52
2019-01-09T09:45:50.311Z,15.45
2019-01-09T09:48:21.122Z,13.25
2019-01-09T09:50:51.567Z,17.07
2019-01-09T09:53:22.091Z,19.05
2019-01-09T09:55:53.945Z,17.12
2019-01-09T09:58:24.476Z,14.87
2019-01-09T10:00:55.197Z,19.00
2019-01-09T10:03:25.769Z,13.00
2019-01-09T10:05:56.302Z,13.70
2019-01-09T10:08:29.526Z,10.23
2019-01-09T10:10:59.759Z,11.70
2019-01-09T10:13:30.224Z,12.03
2019-01-09T10:16:00.878Z,10.80
2019-01-09T10:18:31.969Z,11.95
2019-01-09T10:21:02.537Z,15.72
2019-01-09T10:23:33.174Z,15.45
2019-01-09T10:26:04.282Z,15.38
2019-01-09T10:28:34.713Z,14.13
2019-01-09T10:31:05.372Z,16.40
2019-01-09T10:33:36.000Z,18.00
2019-01-09T10:36:06.749Z,17.45
2019-01-09T10:38:38.108Z,15.23
2019-01-09T10:41:09.203Z,20.97
2019-01-09T10:43:39.968Z,19.98
2019-01-09T10:46:12.057Z,14.98
2019-01-09T10:48:42.826Z,19.77
2019-01-09T10:51:13.467Z,20.85
2019-01-09T10:53:43.947Z,19.87
2019-01-09T10:56:14.393Z,16.48
2019-01-09T10:58:46.272Z,25.65
2019-01-09T11:01:27.002Z,23.52
2019-01-09T11:03:58.009Z,22.73
2019-01-09T11:06:28.605Z,19.05
2019-01-09T11:08:59.223Z,18.90
2019-01-09T11:11:30.261Z,19.95
2019-01-09T11:14:00.582Z,19.40
2019-01-09T11:16:31.386Z,20.60
2019-01-09T11:19:03.020Z,20.12
2019-01-09T11:21:33.607Z,20.72
2019-01-09T11:24:04.237Z,20.95
2019-01-09T11:26:35.114Z,21.70
2019-01-09T11:29:05.603Z,20.70
2019-01-09T11:31:36.725Z,21.52
2019-01-09T11:34:07.283Z,17.55
2019-01-09T11:36:37.813Z,22.67
2019-01-09T11:39:10.984Z,25.68
2019-01-09T11:41:41.446Z,19.80
2019-01-09T11:44:11.950Z,24.55
2019-01-09T11:46:42.610Z,26.97
2019-01-09T11:49:13.506Z,25.10
2019-01-09T11:51:44.634Z,30.40
2019-01-09T11:54:15.190Z,31.40
2019-01-09T11:56:45.892Z,30.12
2019-01-09T11:59:16.649Z,23.83
2019-01-09T12:01:47.330Z,22.90
2019-01-09T12:04:17.818Z,29.55
2019-01-09T12:06:48.533Z,24.95
2019-01-09T12:09:19.237Z,26.25
2019-01-09T12:11:50.213Z,19.67
2019-01-09T12:14:20.983Z,19.10
2019-01-09T12:16:51.500Z,19.98
2019-01-09T12:19:22.116Z,31.97
2019-01-09T12:21:52.951Z,22.85
2019-01-09T12:24:23.673Z,22.62
2019-01-09T12:26:54.540Z,26.57
2019-01-09T12:29:25.066Z,19.57
2019-01-09T12:31:55.794Z,19.90
2019-01-09T12:34:27.864Z,18.12
2019-01-09T12:36:59.233Z,21.10
2019-01-09T12:39:30.258Z,19.32
2019-01-09T12:42:00.978Z,16.60
2019-01-09T12:44:32.397Z,29.07
2019-01-09T12:47:02.962Z,21.00
2019-01-09T12:49:33.587Z,16.07
2019-01-09T12:52:04.257Z,15.57
2019-01-09T12:54:36.283Z,18.87
2019-01-09T12:57:06.939Z,18.83
2019-01-09T12:59:38.121Z,17.60
2019-01-09T13:02:10.029Z,15.30
2019-01-09T13:04:40.866Z,12.90
2019-01-09T13:07:12.454Z,20.80
2019-01-09T13:09:42.874Z,10.47
2019-01-09T13:12:14.636Z,9.03
2019-01-09T13:14:45.069Z,38.87
2019-01-09T13:17:15.684Z,29.77
2019-01-09T13:19:46.426Z,21.87
2019-01-09T13:22:17.119Z,9.90
2019-01-09T13:24:47.867Z,16.55
2019-01-09T13:27:19.416Z,7.70
2019-01-09T13:29:50.366Z,9.35
2019-01-09T13:32:22.059Z,12.55
2019-01-09T13:34:52.810Z,15.30
2019-01-09T13:37:23.280Z,15.35
2019-01-09T13:39:53.730Z,18.45
2019-01-09T13:42:24.223Z,22.10
2019-01-09T13:44:54.724Z,16.00
2019-01-09T13:47:25.284Z,13.65
2019-01-09T13:49:56.464Z,10.13
2019-01-09T13:52:27.164Z,11.00
2019-01-09T13:54:57.663Z,12.00
2019-01-09T13:57:28.228Z,11.70
2019-01-09T13:59:59.143Z,13.38
2019-01-09T14:02:29.584Z,17.42
2019-01-09T14:05:01.143Z,20.60
2019-01-09T14:07:33.272Z,19.62
2019-01-09T14:10:04.055Z,13.25
2019-01-09T14:12:34.833Z,16.82
2019-01-09T14:15:05.968Z,20.48
2019-01-09T14:17:36.867Z,20.40
2019-01-09T14:20:08.354Z,16.20
2019-01-09T14:22:39.229Z,19.80
2019-01-09T14:25:12.416Z,15.88
2019-01-09T14:27:42.902Z,19.17
2019-01-09T14:30:19.189Z,16.32
2019-01-09T14:32:49.878Z,19.75
2019-01-09T14:35:20.636Z,12.25
2019-01-09T14:37:51.678Z,8.10
2019-01-09T14:40:22.427Z,12.30
2019-01-09T14:42:53.503Z,9.75
2019-01-09T14:45:24.183Z,10.05
2019-01-09T14:47:54.707Z,20.90
2019-01-09T14:50:27.911Z,22.73
2019-01-09T14:52:58.465Z,17.62
2019-01-09T14:55:28.883Z,12.25
2019-01-09T14:58:00.290Z,13.32
2019-01-09T15:00:31.025Z,12.40
2019-01-09T15:03:01.493Z,10.55
2019-01-09T15:05:32.195Z,14.35
2019-01-09T15:08:02.859Z,12.47
2019-01-09T15:10:33.816Z,23.62
2019-01-09T15:13:05.051Z,15.48
2019-01-09T15:15:35.868Z,12.47
2019-01-09T15:18:06.570Z,16.60
2019-01-09T15:20:37.233Z,21.33
2019-01-09T15:23:08.236Z,16.48
2019-01-09T15:25:39.203Z,26.77
2019-01-09T15:28:09.835Z,16.80
2019-01-09T15:30:40.411Z,12.15
2019-01-09T15:33:10.879Z,16.35
2019-01-09T15:35:41.431Z,16.73
2019-01-09T15:38:11.928Z,16.67
2019-01-09T15:40:42.580Z,14.28
2019-01-09T15:43:13.150Z,16.93
2019-01-09T15:45:43.680Z,21.35
2019-01-09T15:48:14.207Z,13.78
2019-01-09T15:50:45.788Z,31.23
2019-01-09T15:53:16.338Z,31.90
2019-01-09T15:55:47.059Z,16.60
2019-01-09T15:58:18.789Z,13.18
2019-01-09T16:00:51.768Z,11.53
2019-01-09T16:03:22.161Z,17.50
2019-01-09T16:05:53.311Z,14.15
2019-01-09T16:08:24.088Z,18.80
2019-01-09T16:10:54.841Z,30.37
2019-01-09T16:13:25.551Z,39.35
2019-01-09T16:15:56.658Z,17.55
2019-01-09T16:18:27.380Z,19.48
2019-01-09T16:20:58.373Z,28.12
2019-01-09T16:23:30.923Z,16.42
2019-01-09T16:26:01.492Z,15.15
2019-01-09T16:28:32.033Z,18.92
2019-01-09T16:31:31.308Z,16.97
2019-01-09T16:34:01.979Z,17.10
2019-01-09T16:36:33.628Z,20.82
2019-01-09T16:39:10.552Z,18.30
2019-01-09T16:41:41.262Z,14.75
2019-01-09T16:44:12.483Z,25.90
2019-01-09T16:46:43.415Z,25.52
2019-01-09T16:49:14.508Z,20.30
2019-01-09T16:51:46.112Z,16.42
2019-01-09T16:54:16.845Z,14.47
2019-01-09T16:56:47.364Z,17.75
2019-01-09T16:59:18.948Z,17.65
2019-01-09T17:01:49.570Z,19.85
2019-01-09T17:04:20.173Z,17.00
2019-01-09T17:06:51.174Z,19.55
2019-01-09T17:09:21.733Z,27.02
2019-01-09T17:11:53.524Z,17.90
2019-01-09T17:14:24.430Z,16.80
2019-01-09T17:16:55.204Z,21.55
2019-01-09T17:19:25.713Z,16.70
2019-01-09T17:21:56.430Z,18.32
2019-01-09T17:24:27.026Z,17.48
2019-01-09T17:26:57.838Z,17.10
2019-01-09T17:29:30.347Z,18.87
2019-01-09T17:32:00.839Z,16.02
2019-01-09T17:34:31.473Z,19.98
2019-01-09T17:37:02.434Z,23.12
2019-01-09T17:39:33.227Z,21.25
2019-01-09T17:42:05.237Z,30.15
2019-01-09T17:44:36.036Z,31.48
2019-01-09T17:47:06.888Z,65.95
2019-01-09T17:49:37.909Z,63.42
2019-01-09T17:52:08.744Z,53.63
2019-01-09T17:54:39.433Z,38.20
2019-01-09T17:57:09.988Z,28.25
2019-01-09T17:59:41.083Z,50.80
2019-01-09T18:02:16.500Z,40.52
2019-01-09T18:04:48.820Z,23.15
2019-01-09T18:07:20.146Z,103.92
2019-01-09T18:09:52.318Z,67.92
2019-01-09T18:12:22.944Z,54.30
2019-01-09T18:14:53.607Z,47.45
2019-01-09T18:17:24.371Z,24.65
2019-01-09T18:19:55.276Z,58.83
2019-01-09T18:22:26.995Z,46.58
2019-01-09T18:24:58.464Z,40.00
2019-01-09T18:27:29.088Z,58.85
2019-01-09T18:30:00.363Z,40.83
2019-01-09T18:32:43.255Z,36.03
2019-01-09T18:35:23.807Z,32.80
2019-01-09T18:38:15.704Z,43.63
2019-01-09T18:41:30.776Z,50.03
2019-01-09T18:44:24.898Z,34.88
2019-01-09T18:47:44.016Z,35.20
2019-01-09T18:50:52.342Z,39.80
2019-01-09T18:53:28.615Z,29.05
2019-01-09T18:55:59.340Z,32.53
2019-01-09T18:58:30.152Z,22.42
2019-01-09T19:01:00.650Z,20.65
2019-01-09T19:03:31.253Z,18.25
2019-01-09T19:06:02.201Z,23.87
2019-01-09T19:08:32.871Z,17.85
2019-01-09T19:11:07.845Z,23.92
2019-01-09T19:13:37.307Z,34.85
2019-01-09T19:16:10.135Z,22.25
2019-01-09T19:18:40.975Z,24.40
2019-01-09T19:21:11.601Z,26.82
2019-01-09T19:23:42.166Z,23.67
2019-01-09T19:26:12.851Z,28.77
2019-01-09T19:28:43.581Z,29.20
2019-01-09T19:31:14.383Z,24.55
2019-01-09T19:33:46.147Z,18.30
2019-01-09T19:36:17.420Z,23.45
2019-01-09T19:38:48.838Z,20.72
2019-01-09T19:41:19.619Z,21.40
2019-01-09T19:43:50.247Z,14.90
2019-01-09T19:46:20.820Z,21.27
2019-01-09T19:48:51.682Z,24.32
2019-01-09T19:51:22.793Z,11.78
2019-01-09T19:53:53.460Z,15.15
2019-01-09T19:56:24.098Z,13.85
2019-01-09T19:58:54.759Z,9.73
2019-01-09T20:01:25.651Z,7.70
2019-01-09T20:03:57.539Z,12.58
2019-01-09T20:06:28.435Z,9.03
2019-01-09T20:08:59.189Z,15.18
2019-01-09T20:11:30.097Z,20.95
2019-01-09T20:14:00.852Z,11.68
2019-01-09T20:16:32.618Z,5.85
2019-01-09T20:19:03.483Z,8.73
2019-01-09T20:21:34.402Z,7.90
2019-01-09T20:24:05.027Z,13.43
2019-01-09T20:26:35.655Z,11.95
2019-01-09T20:29:07.171Z,18.75
2019-01-09T20:31:38.044Z,17.32
2019-01-09T20:34:08.666Z,11.65
2019-01-09T20:36:39.288Z,14.38
2019-01-09T20:39:11.469Z,10.90
2019-01-09T20:41:43.572Z,10.35
2019-01-09T20:44:14.123Z,17.23
2019-01-09T20:46:44.586Z,16.15
2019-01-09T20:49:16.838Z,11.88
2019-01-09T20:51:47.929Z,18.48
2019-01-09T20:54:18.721Z,10.55
2019-01-09T20:56:49.450Z,11.00
2019-01-09T20:59:19.984Z,16.27
2019-01-09T21:01:50.658Z,11.00
2019-01-09T21:04:22.249Z,11.60
2019-01-09T21:06:52.791Z,13.72
2019-01-09T21:09:23.306Z,17.05
2019-01-09T21:11:54.356Z,13.43
2019-01-09T21:14:25.032Z,21.97
2019-01-09T21:16:56.558Z,11.03
2019-01-09T21:19:27.276Z,11.95
2019-01-09T21:21:58.731Z,14.10
2019-01-09T21:24:29.316Z,12.40
2019-01-09T21:27:00.167Z,11.73
2019-01-09T21:29:30.808Z,13.48
2019-01-09T21:32:01.537Z,13.75
2019-01-09T21:34:32.253Z,11.95
2019-01-09T21:37:05.532Z,13.13
2019-01-09T21:39:36.120Z,10.90
2019-01-09T21:42:06.854Z,24.02
2019-01-09T21:44:37.373Z,9.80
2019-01-09T21:47:08.105Z,17.73
2019-01-09T21:49:38.801Z,17.92
2019-01-09T21:52:09.577Z,15.05
2019-01-09T21:54:41.749Z,17.17
2019-01-09T21:57:12.394Z,9.23
2019-01-09T21:59:42.841Z,24.20
2019-01-09T22:02:13.865Z,28.00
2019-01-09T22:04:44.431Z,15.20
2019-01-09T22:07:15.437Z,14.75
2019-01-09T22:09:46.375Z,12.93
2019-01-09T22:12:17.646Z,16.55
2019-01-09T22:14:49.643Z,10.88
2019-01-09T22:17:20.323Z,12.82
2019-01-09T22:19:51.179Z,19.45
2019-01-09T22:22:21.715Z,16.45
2019-01-09T22:24:52.451Z,13.53
2019-01-09T22:27:22.917Z,14.15
2019-01-09T22:29:53.432Z,13.15
2019-01-09T22:32:24.475Z,17.60
2019-01-09T22:34:54.897Z,22.30
2019-01-09T22:37:25.496Z,18.85
2019-01-09T22:39:56.369Z,21.12
2019-01-09T22:42:26.961Z,18.02
2019-01-09T22:44:57.576Z,19.48
2019-01-09T22:47:28.237Z,24.43
2019-01-09T22:49:58.704Z,23.50
2019-01-09T22:52:29.485Z,13.13
2019-01-09T22:55:00.349Z,23.52
2019-01-09T22:57:30.781Z,20.65
2019-01-09T23:00:01.423Z,20.20
2019-01-09T23:02:32.003Z,26.75
2019-01-09T23:05:02.590Z,18.47
2019-01-09T23:07:32.925Z,17.50
2019-01-09T23:10:04.184Z,16.50
2019-01-09T23:12:35.105Z,13.53
2019-01-09T23:15:08.481Z,15.67
2019-01-09T23:17:38.900Z,16.47
2019-01-09T23:20:10.657Z,19.50
2019-01-09T23:22:41.142Z,16.85
2019-01-09T23:25:11.806Z,11.40
2019-01-09T23:27:42.216Z,12.07
2019-01-09T23:30:12.914Z,11.90
2019-01-09T23:32:48.320Z,10.82
2019-01-09T23:35:18.993Z,11.68
2019-01-09T23:37:49.550Z,18.85
2019-01-09T23:40:20.468Z,17.83
2019-01-09T23:42:51.032Z,14.58
2019-01-09T23:45:21.481Z,14.35
2019-01-09T23:47:51.938Z,11.47
2019-01-09T23:50:22.401Z,16.33
2019-01-09T23:52:53.084Z,11.95
2019-01-09T23:55:23.548Z,19.30
2019-01-09T23:57:54.216Z,15.45
